createdAt,value
2019-04-22T00:00:53.829Z,12.50
2019-04-22T00:03:32.977Z,12.50
2019-04-22T00:06:19.518Z,12.40
2019-04-22T00:08:56.040Z,12.40
2019-04-22T00:13:56.874Z,12.30
2019-04-22T00:16:33.798Z,12.20
2019-04-22T00:19:17.650Z,12.20
2019-04-22T00:24:04.566Z,12.20
2019-04-22T00:26:43.999Z,12.10
2019-04-22T00:29:35.926Z,12.10
2019-04-22T00:32:19.382Z,12.00
2019-04-22T00:34:48.547Z,12.00
2019-04-22T00:37:25.137Z,12.00
2019-04-22T00:40:14.390Z,11.90
2019-04-22T00:42:27.491Z,11.90
2019-04-22T00:45:09.465Z,11.90
2019-04-22T00:47:32.146Z,11.80
2019-04-22T00:52:38.787Z,11.80
2019-04-22T00:55:12.239Z,11.80
2019-04-22T00:57:42.599Z,11.80
2019-04-22T01:00:21.389Z,11.80
2019-04-22T01:02:49.071Z,11.70
2019-04-22T01:05:21.500Z,11.70
2019-04-22T01:07:49.467Z,11.70
2019-04-22T01:10:26.436Z,11.60
2019-04-22T01:12:56.743Z,11.60
2019-04-22T01:15:30.270Z,11.60
2019-04-22T01:17:57.301Z,11.50
2019-04-22T01:23:05.507Z,11.50
2019-04-22T01:25:31.853Z,11.50
2019-04-22T01:28:00.947Z,11.50
2019-04-22T01:30:30.396Z,11.40
2019-04-22T01:32:57.908Z,11.40
2019-04-22T01:35:37.494Z,11.40
2019-04-22T01:38:13.321Z,11.30
2019-04-22T01:40:52.812Z,11.30
2019-04-22T01:43:33.501Z,11.30
2019-04-22T01:46:02.697Z,11.20
2019-04-22T01:48:33.060Z,11.20
2019-04-22T01:51:00.761Z,11.20
2019-04-22T01:53:33.444Z,11.20
2019-04-22T01:56:08.819Z,11.10
2019-04-22T01:58:33.574Z,11.10
2019-04-22T02:01:15.502Z,11.10
2019-04-22T02:03:52.034Z,11.00
2019-04-22T02:06:27.694Z,11.00
2019-04-22T02:08:52.817Z,11.00
2019-04-22T02:11:26.501Z,11.00
2019-04-22T02:13:56.551Z,11.00
2019-04-22T02:16:27.333Z,10.90
2019-04-22T02:19:01.176Z,10.90
2019-04-22T02:21:28.607Z,10.90
2019-04-22T02:24:06.318Z,10.90
2019-04-22T02:26:42.016Z,10.90
2019-04-22T02:29:06.469Z,10.80
2019-04-22T02:31:45.010Z,10.80
2019-04-22T02:34:22.236Z,10.80
2019-04-22T02:36:50.874Z,10.80
2019-04-22T02:42:00.820Z,10.70
2019-04-22T02:44:42.550Z,10.70
2019-04-22T02:49:50.881Z,10.70
2019-04-22T02:52:06.401Z,10.60
2019-04-22T02:59:54.821Z,10.50
2019-04-22T03:02:19.051Z,10.50
2019-04-22T03:04:57.973Z,10.50
2019-04-22T03:07:14.788Z,10.50
2019-04-22T03:09:52.644Z,10.50
2019-04-22T03:15:08.000Z,10.50
2019-04-22T03:17:30.875Z,10.50
2019-04-22T03:22:52.051Z,10.40
2019-04-22T03:25:33.056Z,10.40
2019-04-22T03:27:34.770Z,10.40
2019-04-22T03:40:34.597Z,10.30
2019-04-22T03:45:31.990Z,10.20
2019-04-22T03:53:09.782Z,10.20
2019-04-22T03:58:21.867Z,10.00
2019-04-22T04:00:49.795Z,10.00
2019-04-22T04:05:54.127Z,10.00
2019-04-22T04:08:19.705Z,10.00
2019-04-22T04:10:48.386Z,10.10
2019-04-22T04:15:46.640Z,10.10
2019-04-22T04:18:33.106Z,10.10
2019-04-22T04:21:17.708Z,10.00
2019-04-22T04:23:55.526Z,10.00
2019-04-22T04:26:05.163Z,10.00
2019-04-22T04:31:25.406Z,9.90
2019-04-22T04:36:23.708Z,9.80
2019-04-22T04:41:27.107Z,9.80
2019-04-22T04:44:15.342Z,9.80
2019-04-22T04:46:43.181Z,9.80
2019-04-22T04:54:15.143Z,9.90
2019-04-22T04:56:36.416Z,9.90
2019-04-22T04:59:16.280Z,9.90
2019-04-22T05:06:51.787Z,10.00
2019-04-22T05:11:53.956Z,10.10
2019-04-22T05:14:23.258Z,10.20
2019-04-22T05:16:59.738Z,10.20
2019-04-22T05:19:23.927Z,10.20
2019-04-22T05:21:53.077Z,10.30
2019-04-22T05:24:35.045Z,10.30
2019-04-22T05:27:02.127Z,10.40
2019-04-22T05:29:32.204Z,10.40
2019-04-22T05:31:56.997Z,10.50
2019-04-22T05:34:31.934Z,10.50
2019-04-22T05:37:02.410Z,10.60
2019-04-22T05:39:28.307Z,10.60
2019-04-22T05:42:10.490Z,10.70
2019-04-22T05:44:47.447Z,10.70
2019-04-22T05:47:08.340Z,10.80
2019-04-22T05:49:45.866Z,10.90
2019-04-22T05:52:17.268Z,11.00
2019-04-22T05:54:50.530Z,11.10
2019-04-22T05:57:19.801Z,11.20
2019-04-22T05:59:53.306Z,11.40
2019-04-22T06:02:33.875Z,11.50
2019-04-22T06:05:00.267Z,11.60
2019-04-22T06:07:27.910Z,11.70
2019-04-22T06:10:06.649Z,11.80
2019-04-22T06:12:26.790Z,11.90
2019-04-22T06:15:24.110Z,12.00
2019-04-22T06:17:54.848Z,12.00
2019-04-22T06:20:23.795Z,12.10
2019-04-22T06:22:58.509Z,12.10
2019-04-22T06:25:39.499Z,12.20
2019-04-22T06:28:07.125Z,12.30
2019-04-22T06:30:34.639Z,12.30
2019-04-22T06:33:11.297Z,12.40
2019-04-22T06:38:24.601Z,12.60
2019-04-22T06:41:05.792Z,12.70
2019-04-22T06:43:30.095Z,12.80
2019-04-22T06:45:45.015Z,12.80
2019-04-22T06:48:27.946Z,12.90
2019-04-22T06:53:25.589Z,13.10
2019-04-22T06:55:51.653Z,13.20
2019-04-22T06:58:28.607Z,13.30
2019-04-22T07:01:04.306Z,13.30
2019-04-22T07:06:07.382Z,13.50
2019-04-22T07:11:04.622Z,13.70
2019-04-22T07:16:13.370Z,13.80
2019-04-22T07:18:42.985Z,13.80
2019-04-22T07:21:19.624Z,13.70
2019-04-22T07:24:02.930Z,13.70
2019-04-22T07:26:21.571Z,13.70
2019-04-22T07:28:56.407Z,13.70
2019-04-22T07:31:43.124Z,13.80
2019-04-22T07:34:02.326Z,13.90
2019-04-22T07:39:05.619Z,14.10
2019-04-22T07:41:37.243Z,14.10
2019-04-22T07:44:16.663Z,14.10
2019-04-22T07:46:54.770Z,14.20
2019-04-22T07:49:18.320Z,14.30
2019-04-22T07:52:01.410Z,14.30
2019-04-22T07:54:24.649Z,14.30
2019-04-22T07:56:50.799Z,14.40
2019-04-22T08:01:59.132Z,14.60
2019-04-22T08:04:49.401Z,14.80
2019-04-22T08:07:10.945Z,15.00
2019-04-22T08:09:35.641Z,15.20
2019-04-22T08:12:04.140Z,15.30
2019-04-22T08:14:41.758Z,15.40
2019-04-22T08:17:43.460Z,15.60
2019-04-22T08:19:50.157Z,15.70
2019-04-22T08:22:22.347Z,15.90
2019-04-22T08:27:33.449Z,16.30
2019-04-22T08:30:06.491Z,16.40
2019-04-22T08:32:34.582Z,16.60
2019-04-22T08:35:05.903Z,16.80
2019-04-22T08:40:12.616Z,17.10
2019-04-22T08:42:53.359Z,17.40
2019-04-22T08:45:28.483Z,17.70
2019-04-22T08:48:01.219Z,17.80
2019-04-22T08:50:21.312Z,18.00
2019-04-22T08:53:00.353Z,18.30
2019-04-22T08:55:24.358Z,18.50
2019-04-22T09:00:33.862Z,18.90
2019-04-22T09:03:04.722Z,19.10
2019-04-22T09:05:48.687Z,19.30
2019-04-22T09:08:15.567Z,19.50
2019-04-22T09:10:46.859Z,19.70
2019-04-22T09:13:14.491Z,19.90
2019-04-22T09:15:49.598Z,20.00
2019-04-22T09:18:21.764Z,20.10
2019-04-22T09:21:01.423Z,20.10
2019-04-22T09:25:53.186Z,20.00
2019-04-22T09:28:31.143Z,19.90
2019-04-22T09:31:01.303Z,19.80
2019-04-22T09:33:31.928Z,19.70
2019-04-22T09:36:13.037Z,19.80
2019-04-22T09:38:38.348Z,19.90
2019-04-22T09:41:13.978Z,20.20
2019-04-22T09:43:50.834Z,20.40
2019-04-22T09:46:17.263Z,20.70
2019-04-22T09:51:18.710Z,21.00
2019-04-22T09:53:54.808Z,21.10
2019-04-22T09:56:26.060Z,21.30
2019-04-22T09:58:59.343Z,21.50
2019-04-22T10:04:00.619Z,21.70
2019-04-22T10:09:26.999Z,22.00
2019-04-22T10:11:37.736Z,22.20
2019-04-22T10:14:13.907Z,22.20
2019-04-22T10:16:45.266Z,22.20
2019-04-22T10:19:18.084Z,22.20
2019-04-22T10:21:51.101Z,22.30
2019-04-22T10:24:33.050Z,22.60
2019-04-22T10:26:55.342Z,23.00
2019-04-22T10:29:24.750Z,23.50
2019-04-22T10:31:55.802Z,24.00
2019-04-22T10:34:14.149Z,24.30
2019-04-22T10:36:35.573Z,24.60
2019-04-22T10:39:16.226Z,24.90
2019-04-22T10:41:46.775Z,25.40
2019-04-22T10:44:17.305Z,25.80
2019-04-22T10:46:48.306Z,25.90
2019-04-22T10:49:22.384Z,26.00
2019-04-22T10:51:53.140Z,26.10
2019-04-22T10:54:25.368Z,26.20
2019-04-22T10:56:56.957Z,26.60
2019-04-22T10:59:28.753Z,27.00
2019-04-22T11:01:59.357Z,27.10
2019-04-22T11:04:30.238Z,27.30
2019-04-22T11:07:03.927Z,27.70
2019-04-22T11:09:40.332Z,27.80
2019-04-22T11:12:13.897Z,27.90
2019-04-22T11:14:43.193Z,27.90
2019-04-22T11:17:15.636Z,28.00
2019-04-22T11:19:49.977Z,28.20
2019-04-22T11:22:36.842Z,28.10
2019-04-22T11:25:06.043Z,28.00
2019-04-22T11:27:37.184Z,27.60
2019-04-22T11:30:09.123Z,27.30
2019-04-22T11:32:40.437Z,27.00
2019-04-22T11:35:13.885Z,26.80
2019-04-22T11:37:44.849Z,26.80
2019-04-22T11:40:22.272Z,26.80
2019-04-22T11:42:48.222Z,26.80
2019-04-22T11:45:21.428Z,26.90
2019-04-22T11:47:53.156Z,26.80
2019-04-22T11:50:24.322Z,27.10
2019-04-22T11:52:55.269Z,27.70
2019-04-22T11:55:26.841Z,28.30
2019-04-22T11:57:58.845Z,28.60
2019-04-22T12:00:37.031Z,28.90
2019-04-22T12:03:09.287Z,29.40
2019-04-22T12:05:39.941Z,29.90
2019-04-22T12:08:11.301Z,30.40
2019-04-22T12:10:49.493Z,30.60
2019-04-22T12:13:15.652Z,30.90
2019-04-22T12:15:46.827Z,30.90
2019-04-22T12:18:17.410Z,31.00
2019-04-22T12:20:47.896Z,31.10
2019-04-22T12:23:18.987Z,31.30
2019-04-22T12:25:58.243Z,31.40
2019-04-22T12:28:24.052Z,31.10
2019-04-22T12:30:55.294Z,30.80
2019-04-22T12:33:27.588Z,30.80
2019-04-22T12:35:58.379Z,31.10
2019-04-22T12:38:29.426Z,31.00
2019-04-22T12:41:04.360Z,30.80
2019-04-22T12:43:33.636Z,30.50
2019-04-22T12:46:05.839Z,30.40
2019-04-22T12:48:37.055Z,30.30
2019-04-22T12:51:09.208Z,30.30
2019-04-22T12:53:40.283Z,30.20
2019-04-22T12:56:12.565Z,30.10
2019-04-22T12:58:43.569Z,30.00
2019-04-22T13:01:15.113Z,29.80
2019-04-22T13:03:46.462Z,29.70
2019-04-22T13:06:17.569Z,29.50
2019-04-22T13:08:49.845Z,29.30
2019-04-22T13:11:27.898Z,29.00
2019-04-22T13:13:52.586Z,28.70
2019-04-22T13:16:23.028Z,28.30
2019-04-22T13:18:59.280Z,28.00
2019-04-22T13:21:26.931Z,27.70
2019-04-22T13:23:57.477Z,27.50
2019-04-22T13:26:29.373Z,27.30
2019-04-22T13:29:03.202Z,27.10
2019-04-22T13:31:34.889Z,27.00
2019-04-22T13:34:09.581Z,26.90
2019-04-22T13:36:41.077Z,26.70
2019-04-22T13:39:11.292Z,26.60
2019-04-22T13:44:14.636Z,26.40
2019-04-22T13:47:02.103Z,26.40
2019-04-22T13:49:49.548Z,26.40
2019-04-22T13:52:35.178Z,26.40
2019-04-22T13:53:53.454Z,26.50
2019-04-22T13:57:18.573Z,26.50
2019-04-22T13:59:38.184Z,26.40
2019-04-22T14:02:19.563Z,26.40
2019-04-22T14:04:52.338Z,26.40
2019-04-22T14:07:23.201Z,26.50
2019-04-22T14:09:56.121Z,26.40
2019-04-22T14:12:28.773Z,26.30
2019-04-22T14:15:00.225Z,26.20
2019-04-22T14:17:31.521Z,26.10
2019-04-22T14:20:02.732Z,26.00
2019-04-22T14:22:34.661Z,25.90
2019-04-22T14:25:06.933Z,25.90
2019-04-22T14:27:47.534Z,25.80
2019-04-22T14:30:10.531Z,25.70
2019-04-22T14:32:42.126Z,25.50
2019-04-22T14:35:15.357Z,25.30
2019-04-22T14:37:46.064Z,25.10
2019-04-22T14:40:18.764Z,25.10
2019-04-22T14:43:09.143Z,25.00
2019-04-22T14:45:58.477Z,24.90
2019-04-22T14:48:24.785Z,24.80
2019-04-22T14:50:48.204Z,24.60
2019-04-22T14:53:21.757Z,24.50
2019-04-22T14:55:36.269Z,24.40
2019-04-22T14:58:04.947Z,24.20
2019-04-22T15:00:35.825Z,24.10
2019-04-22T15:03:08.183Z,24.00
2019-04-22T15:05:40.106Z,23.80
2019-04-22T15:08:11.012Z,23.70
2019-04-22T15:10:42.238Z,23.60
2019-04-22T15:13:13.476Z,23.50
2019-04-22T15:16:01.048Z,23.50
2019-04-22T15:18:49.942Z,23.40
2019-04-22T15:21:22.949Z,23.30
2019-04-22T15:23:53.438Z,23.30
2019-04-22T15:26:24.550Z,23.20
2019-04-22T15:28:55.499Z,23.20
2019-04-22T15:31:27.157Z,23.20
2019-04-22T15:33:58.659Z,23.10
2019-04-22T15:36:30.328Z,23.10
2019-04-22T15:39:02.967Z,23.10
2019-04-22T15:41:36.716Z,23.10
2019-04-22T15:44:08.010Z,23.20
2019-04-22T15:46:39.057Z,23.30
2019-04-22T15:49:09.915Z,23.30
2019-04-22T15:51:40.826Z,23.50
2019-04-22T15:54:11.807Z,23.80
2019-04-22T15:56:46.456Z,24.10
2019-04-22T15:59:36.001Z,24.50
2019-04-22T16:01:50.467Z,24.80
2019-04-22T16:04:21.009Z,24.90
2019-04-22T16:06:52.853Z,25.00
2019-04-22T16:09:24.899Z,25.10
2019-04-22T16:11:58.028Z,25.10
2019-04-22T16:14:32.800Z,25.20
2019-04-22T16:17:00.894Z,25.40
2019-04-22T16:19:32.848Z,25.40
2019-04-22T16:22:08.705Z,25.30
2019-04-22T16:24:47.917Z,25.40
2019-04-22T16:27:22.818Z,25.40
2019-04-22T16:29:55.004Z,25.50
2019-04-22T16:32:27.617Z,25.40
2019-04-22T16:34:58.866Z,25.40
2019-04-22T16:37:30.593Z,25.20
2019-04-22T16:40:03.054Z,25.00
2019-04-22T16:42:43.257Z,24.80
2019-04-22T16:45:07.580Z,24.60
2019-04-22T16:47:39.546Z,24.40
2019-04-22T16:50:10.313Z,24.20
2019-04-22T16:53:02.040Z,24.10
2019-04-22T16:55:32.801Z,23.90
2019-04-22T16:58:05.272Z,23.70
2019-04-22T17:00:36.654Z,23.60
2019-04-22T17:03:26.720Z,23.40
2019-04-22T17:06:25.706Z,23.30
2019-04-22T17:08:57.135Z,23.20
2019-04-22T17:11:27.912Z,23.10
2019-04-22T17:13:59.336Z,23.00
2019-04-22T17:16:30.688Z,22.90
2019-04-22T17:19:02.526Z,22.90
2019-04-22T17:21:33.564Z,22.80
2019-04-22T17:24:05.555Z,22.70
2019-04-22T17:26:36.764Z,22.70
2019-04-22T17:29:08.431Z,22.60
2019-04-22T17:31:42.061Z,22.50
2019-04-22T17:34:11.633Z,22.40
2019-04-22T17:36:42.407Z,22.40
2019-04-22T17:39:27.002Z,22.20
2019-04-22T17:42:06.909Z,22.10
2019-04-22T17:44:46.481Z,22.00
2019-04-22T17:47:25.892Z,21.90
2019-04-22T17:50:10.660Z,21.70
2019-04-22T17:52:38.908Z,21.70
2019-04-22T17:55:09.807Z,21.50
2019-04-22T17:57:38.454Z,21.40
2019-04-22T18:00:14.466Z,21.20
2019-04-22T18:02:45.743Z,21.10
2019-04-22T18:05:04.268Z,20.90
2019-04-22T18:07:55.932Z,20.80
2019-04-22T18:13:07.478Z,20.50
2019-04-22T18:15:40.940Z,20.30
2019-04-22T18:18:12.345Z,20.20
2019-04-22T18:20:34.971Z,20.00
2019-04-22T18:23:03.640Z,19.90
2019-04-22T18:25:44.962Z,19.80
2019-04-22T18:28:39.609Z,19.60
2019-04-22T18:31:15.051Z,19.50
2019-04-22T18:33:46.538Z,19.40
2019-04-22T18:36:14.121Z,19.30
2019-04-22T18:38:58.695Z,19.10
2019-04-22T18:41:17.804Z,19.00
2019-04-22T18:44:01.791Z,18.90
2019-04-22T18:46:26.968Z,18.80
2019-04-22T18:49:00.544Z,18.80
2019-04-22T18:51:42.593Z,18.70
2019-04-22T18:54:36.735Z,18.60
2019-04-22T18:57:07.395Z,18.50
2019-04-22T18:59:27.835Z,18.40
2019-04-22T19:02:02.550Z,18.30
2019-04-22T19:04:37.933Z,18.20
2019-04-22T19:07:28.590Z,18.10
2019-04-22T19:15:19.168Z,17.90
2019-04-22T19:17:39.139Z,17.80
2019-04-22T19:20:10.771Z,17.80
2019-04-22T19:22:37.406Z,17.60
2019-04-22T19:25:00.078Z,17.60
2019-04-22T19:27:35.624Z,17.60
2019-04-22T19:30:16.394Z,17.50
2019-04-22T19:32:45.906Z,17.40
2019-04-22T19:35:14.017Z,17.30
2019-04-22T19:37:45.230Z,17.30
2019-04-22T19:40:26.017Z,17.20
2019-04-22T19:42:57.441Z,17.00
2019-04-22T19:45:20.267Z,17.00
2019-04-22T19:48:06.582Z,17.00
2019-04-22T19:50:35.434Z,16.90
2019-04-22T19:53:04.896Z,16.90
2019-04-22T19:55:39.280Z,16.80
2019-04-22T19:58:10.789Z,16.70
2019-04-22T20:00:52.070Z,16.70
2019-04-22T20:03:50.838Z,16.70
2019-04-22T20:06:26.853Z,16.60
2019-04-22T20:09:01.847Z,16.60
2019-04-22T20:11:37.621Z,16.50
2019-04-22T20:14:07.364Z,16.50
2019-04-22T20:16:38.526Z,16.40
2019-04-22T20:19:25.576Z,16.40
2019-04-22T20:21:51.249Z,16.40
2019-04-22T20:24:10.028Z,16.30
2019-04-22T20:27:16.420Z,16.30
2019-04-22T20:29:31.030Z,16.30
2019-04-22T20:31:59.256Z,16.20
2019-04-22T20:34:38.220Z,16.30
2019-04-22T20:37:10.722Z,16.30
2019-04-22T20:39:37.956Z,16.20
2019-04-22T20:42:23.139Z,16.20
2019-04-22T20:44:47.299Z,16.20
2019-04-22T20:47:09.163Z,16.20
2019-04-22T20:49:50.385Z,16.20
2019-04-22T20:52:26.641Z,16.10
2019-04-22T20:54:49.485Z,16.10
2019-04-22T20:57:23.977Z,16.00
2019-04-22T20:59:52.260Z,16.00
2019-04-22T21:02:25.220Z,16.00
2019-04-22T21:04:49.026Z,16.00
2019-04-22T21:07:26.681Z,15.90
2019-04-22T21:10:04.328Z,15.80
2019-04-22T21:12:29.268Z,15.80
2019-04-22T21:15:17.848Z,15.80
2019-04-22T21:17:42.877Z,15.80
2019-04-22T21:20:22.366Z,15.70
2019-04-22T21:22:54.965Z,15.70
2019-04-22T21:25:18.280Z,15.60
2019-04-22T21:27:56.871Z,15.60
2019-04-22T21:30:26.480Z,15.60
2019-04-22T21:32:57.964Z,15.50
2019-04-22T21:35:48.579Z,15.50
2019-04-22T21:38:08.430Z,15.50
2019-04-22T21:40:37.661Z,15.50
2019-04-22T21:43:16.581Z,15.50
2019-04-22T21:45:39.189Z,15.50
2019-04-22T21:48:26.306Z,15.50
2019-04-22T21:50:54.552Z,15.50
2019-04-22T21:53:29.250Z,15.50
2019-04-22T21:56:04.329Z,15.50
2019-04-22T21:58:33.295Z,15.50
2019-04-22T22:01:35.580Z,15.50
2019-04-22T22:04:03.093Z,15.40
2019-04-22T22:06:19.594Z,15.40
2019-04-22T22:09:02.542Z,15.40
2019-04-22T22:11:37.181Z,15.30
2019-04-22T22:14:07.815Z,15.30
2019-04-22T22:16:31.553Z,15.20
2019-04-22T22:19:10.977Z,15.20
2019-04-22T22:24:18.517Z,15.10
2019-04-22T22:26:50.896Z,15.10
2019-04-22T22:29:29.411Z,15.00
2019-04-22T22:32:03.218Z,15.00
2019-04-22T22:34:26.636Z,15.00
2019-04-22T22:36:50.409Z,15.00
2019-04-22T22:39:23.197Z,14.90
2019-04-22T22:41:44.031Z,14.90
2019-04-22T22:44:24.210Z,14.90
2019-04-22T22:47:03.193Z,14.90
2019-04-22T22:49:42.861Z,14.90
2019-04-22T22:52:40.854Z,14.90
2019-04-22T22:54:53.103Z,14.90
2019-04-22T22:57:25.844Z,14.80
2019-04-22T22:59:50.229Z,14.80
2019-04-22T23:02:22.997Z,14.80
2019-04-22T23:04:52.564Z,14.80
2019-04-22T23:07:28.782Z,14.70
2019-04-22T23:10:00.164Z,14.70
2019-04-22T23:12:40.869Z,14.70
2019-04-22T23:14:59.294Z,14.60
2019-04-22T23:17:21.435Z,14.70
2019-04-22T23:19:52.116Z,14.60
2019-04-22T23:22:28.449Z,14.60
2019-04-22T23:25:16.054Z,14.60
2019-04-22T23:27:52.803Z,14.60
2019-04-22T23:30:56.764Z,14.50
2019-04-22T23:33:42.494Z,14.50
2019-04-22T23:36:18.926Z,14.50
2019-04-22T23:39:09.726Z,14.50
2019-04-22T23:41:55.452Z,14.50
2019-04-22T23:44:11.412Z,14.40
2019-04-22T23:46:57.160Z,14.40
2019-04-22T23:49:25.053Z,14.40
2019-04-22T23:52:22.689Z,14.40
2019-04-22T23:54:40.617Z,14.40
2019-04-22T23:57:03.353Z,14.40
2019-04-22T23:59:51.081Z,14.40
